Time;durP1;ratioP1;P1;durP2;ratioP2;P2;SDS_P1;SDS_P2;PMS_P1;PMS_P2;Temp;Humidity;BMP_temperature;BMP_pressure;BME280_temperature;BME280_humidity;BME280_pressure;Samples;Min_cycle;Max_cycle;Signal;HPM_P1;HPM_P2
2021/12/11 00:01:16;;;;;;;4.13;1.50;;;;;;;3.71;87.06;94259.03;4980616;28;20239;-82
2021/12/11 00:03:49;;;;;;;1.87;1.37;;;;;;;3.73;86.88;94269.03;4971976;28;20332;-82
2021/12/11 00:06:18;;;;;;;2.03;1.37;;;;;;;3.76;86.52;94273.78;4979216;28;20283;-82
2021/12/11 00:08:51;;;;;;;2.63;1.73;;;;;;;3.74;86.45;94273.97;4981732;28;20204;-82
2021/12/11 00:11:28;;;;;;;1.90;1.57;;;;;;;3.73;86.42;94262.19;4981583;28;20291;-83
2021/12/11 00:14:09;;;;;;;1.93;1.40;;;;;;;3.77;86.23;94281.28;4970129;28;20278;-82
2021/12/11 00:16:37;;;;;;;1.80;1.20;;;;;;;3.74;86.29;94275.72;4980143;28;20212;-82
2021/12/11 00:19:06;;;;;;;2.97;1.50;;;;;;;3.80;85.65;94278.41;4981125;28;20216;-82
2021/12/11 00:21:33;;;;;;;1.63;1.33;;;;;;;3.84;85.44;94283.16;4979373;28;20587;-82
2021/12/11 00:24:04;;;;;;;2.20;1.53;;;;;;;3.84;85.16;94293.34;4980226;28;20223;-82
2021/12/11 00:26:35;;;;;;;2.67;1.20;;;;;;;3.83;85.32;94301.94;4979847;28;20224;-82
2021/12/11 00:29:06;;;;;;;1.77;1.47;;;;;;;3.72;85.45;94295.44;4980378;28;20671;-82
2021/12/11 00:31:34;;;;;;;1.73;1.37;;;;;;;3.79;85.27;94302.25;4980030;28;20207;-82
2021/12/11 00:34:00;;;;;;;2.67;1.37;;;;;;;3.81;85.10;94305.44;4980561;28;20667;-82
2021/12/11 00:36:32;;;;;;;1.20;1.10;;;;;;;3.83;85.19;94309.56;4979827;28;20228;-82
2021/12/11 00:39:04;;;;;;;1.73;1.30;;;;;;;3.84;84.67;94319.59;4980745;28;20223;-82
2021/12/11 00:41:33;;;;;;;2.73;1.67;;;;;;;3.84;84.85;94321.34;4979791;28;20882;-82
2021/12/11 00:44:01;;;;;;;2.43;1.73;;;;;;;3.84;84.28;94327.22;4980202;28;20299;-82
2021/12/11 00:46:29;;;;;;;3.73;2.00;;;;;;;3.81;84.65;94338.53;4979769;28;20327;-82
2021/12/11 00:49:06;;;;;;;3.03;1.80;;;;;;;3.78;84.78;94336.31;4980852;28;20239;-82
2021/12/11 00:51:33;;;;;;;3.07;1.43;;;;;;;3.73;84.88;94337.75;4979469;28;20211;-82
2021/12/11 00:54:00;;;;;;;2.33;1.73;;;;;;;3.68;84.74;94347.63;4980150;28;20204;-82
2021/12/11 00:56:33;;;;;;;2.90;1.20;;;;;;;3.70;84.43;94341.41;4979402;28;20634;-82
2021/12/11 00:59:04;;;;;;;1.53;1.40;;;;;;;3.73;84.63;94351.28;4979858;28;20208;-82
2021/12/11 01:01:34;;;;;;;1.60;1.30;;;;;;;3.80;84.30;94357.31;4979350;28;20227;-82
2021/12/11 01:04:04;;;;;;;1.83;1.67;;;;;;;3.76;84.56;94365.44;4979607;28;20207;-82
2021/12/11 01:06:34;;;;;;;3.17;1.30;;;;;;;3.85;84.14;94369.50;4978679;28;20224;-82
2021/12/11 01:09:04;;;;;;;2.10;1.30;;;;;;;3.90;84.05;94371.56;4975024;28;20204;-82
2021/12/11 01:11:35;;;;;;;2.50;1.47;;;;;;;3.88;83.58;94374.28;4979585;28;20544;-82
2021/12/11 01:14:12;;;;;;;1.37;1.27;;;;;;;3.87;83.59;94392.25;4979479;28;20728;-82
2021/12/11 01:16:40;;;;;;;1.67;1.40;;;;;;;3.85;83.38;94389.88;4978219;28;20216;-82
2021/12/11 01:19:16;;;;;;;1.30;1.17;;;;;;;3.75;83.91;94396.94;4969141;28;20208;-82
2021/12/11 01:21:55;;;;;;;2.10;1.30;;;;;;;3.73;84.29;94398.84;4972119;28;20738;-82
2021/12/11 01:24:30;;;;;;;1.00;1.00;;;;;;;3.73;84.39;94401.38;4973867;28;20215;-82
2021/12/11 01:27:00;;;;;;;1.63;1.30;;;;;;;3.76;83.81;94406.16;4973070;28;20220;-82
2021/12/11 01:29:30;;;;;;;1.87;1.40;;;;;;;3.76;83.85;94423.97;4972950;28;20204;-82
2021/12/11 01:31:58;;;;;;;1.47;1.20;;;;;;;3.72;83.79;94408.22;4973153;28;20231;-82
2021/12/11 01:34:25;;;;;;;1.20;1.10;;;;;;;3.74;83.99;94421.59;4974161;28;20200;-82
2021/12/11 01:36:52;;;;;;;1.40;1.23;;;;;;;3.82;83.79;94423.31;4972755;28;20227;-82
2021/12/11 01:39:21;;;;;;;1.30;1.20;;;;;;;3.84;83.18;94418.88;4973721;28;20270;-82
2021/12/11 01:41:49;;;;;;;2.17;1.33;;;;;;;3.82;83.19;94418.22;4971670;28;20364;-82
2021/12/11 01:44:21;;;;;;;2.00;1.03;;;;;;;3.92;83.14;94425.66;4972856;28;20627;-82
2021/12/11 01:46:48;;;;;;;1.40;1.17;;;;;;;3.92;82.81;94434.09;4956392;28;20890;-82
2021/12/11 01:49:20;;;;;;;1.40;1.30;;;;;;;3.92;82.51;94435.84;4973102;28;20208;-82
2021/12/11 01:51:52;;;;;;;1.00;1.00;;;;;;;3.77;82.80;94441.63;4973224;28;20450;-82
2021/12/11 01:54:22;;;;;;;1.10;1.10;;;;;;;3.68;83.46;94439.25;4973048;28;20200;-82
2021/12/11 01:56:54;;;;;;;1.30;1.20;;;;;;;3.76;83.42;94444.34;4972965;28;20223;-82
2021/12/11 01:59:25;;;;;;;1.40;1.30;;;;;;;3.78;82.90;94448.31;4972926;28;20212;-82
2021/12/11 02:01:57;;;;;;;1.60;1.13;;;;;;;3.70;83.33;94457.69;4973165;28;20697;-82
2021/12/11 02:04:27;;;;;;;1.57;1.20;;;;;;;3.72;83.18;94448.94;4972744;28;20204;-82
2021/12/11 02:06:55;;;;;;;2.10;1.40;;;;;;;3.77;83.10;94453.56;4971419;28;20743;-82
2021/12/11 02:09:25;;;;;;;1.20;1.10;;;;;;;3.77;82.60;94456.91;4972351;28;20211;-82
2021/12/11 02:12:07;;;;;;;2.77;1.30;;;;;;;3.80;82.72;94459.13;4971570;28;20255;-82
2021/12/11 02:14:40;;;;;;;1.40;1.30;;;;;;;3.80;82.39;94454.03;4971604;28;20207;-82
2021/12/11 02:17:07;;;;;;;1.20;1.10;;;;;;;3.87;82.06;94458.47;4971551;28;20848;-82
2021/12/11 02:19:39;;;;;;;1.10;1.10;;;;;;;3.83;82.16;94455.47;4972304;28;20210;-82
2021/12/11 02:22:15;;;;;;;1.40;1.30;;;;;;;3.75;82.63;94456.25;4970979;28;20232;-82
2021/12/11 02:24:46;;;;;;;1.20;1.10;;;;;;;3.70;82.72;94463.59;4971368;28;20208;-82
2021/12/11 02:27:18;;;;;;;3.17;1.20;;;;;;;3.75;82.65;94458.00;4971662;28;20232;-82
2021/12/11 02:29:48;;;;;;;1.20;1.10;;;;;;;3.86;82.13;94467.03;4971476;28;20200;-82
2021/12/11 02:32:22;;;;;;;1.13;1.10;;;;;;;3.81;81.94;94473.44;4971890;28;20663;-82
2021/12/11 02:34:54;;;;;;;2.20;1.50;;;;;;;3.83;81.99;94472.50;4971670;28;20199;-81
2021/12/11 02:37:28;;;;;;;2.00;1.30;;;;;;;3.78;82.52;94478.84;4972054;28;20223;-82
2021/12/11 02:39:58;;;;;;;2.20;1.10;;;;;;;3.78;82.07;94493.34;4971845;28;20285;-82
2021/12/11 02:42:32;;;;;;;3.90;1.40;;;;;;;3.73;82.51;94491.25;4971876;28;20711;-82
2021/12/11 02:45:06;;;;;;;1.17;1.00;;;;;;;3.70;82.26;94493.34;4971326;28;20228;-82
2021/12/11 02:47:37;;;;;;;1.37;1.27;;;;;;;3.69;82.29;94497.63;4972321;28;20730;-82
2021/12/11 02:50:13;;;;;;;1.73;1.30;;;;;;;3.73;82.69;94490.47;4971454;28;20204;-82
2021/12/11 02:52:44;;;;;;;1.60;1.20;;;;;;;3.70;82.40;94500.97;4972076;28;20223;-82
2021/12/11 02:55:17;;;;;;;1.60;1.50;;;;;;;3.71;82.32;94502.56;4971733;28;20204;-82
2021/12/11 02:57:46;;;;;;;1.60;1.23;;;;;;;3.64;82.99;94506.72;4972683;28;20212;-82
2021/12/11 03:00:18;;;;;;;2.33;1.27;;;;;;;3.66;82.52;94517.50;4972265;28;20212;-82
2021/12/11 03:02:49;;;;;;;4.07;1.50;;;;;;;3.69;82.81;94514.66;4971390;28;20602;-82
2021/12/11 03:05:20;;;;;;;2.07;1.20;;;;;;;3.81;82.20;94523.56;4970412;28;20232;-82
2021/12/11 03:07:52;;;;;;;1.30;1.20;;;;;;;3.77;81.88;94525.63;4971039;28;20216;-82
2021/12/11 03:10:22;;;;;;;1.53;1.30;;;;;;;3.70;82.38;94531.50;4971225;28;20208;-82
2021/12/11 03:12:49;;;;;;;5.30;1.30;;;;;;;3.67;82.39;94532.63;4971003;28;20239;-82
2021/12/11 03:15:17;;;;;;;3.30;1.23;;;;;;;3.62;83.04;94534.06;4971230;28;20867;-82
2021/12/11 03:17:44;;;;;;;1.63;1.30;;;;;;;3.74;82.53;94532.78;4971534;28;20192;-81
2021/12/11 03:20:14;;;;;;;2.90;1.50;;;;;;;3.77;82.11;94535.81;4971778;28;20208;-82
2021/12/11 03:22:43;;;;;;;1.50;1.40;;;;;;;3.75;82.29;94539.47;4970872;28;20234;-82
2021/12/11 03:25:13;;;;;;;2.20;1.50;;;;;;;3.68;82.60;94534.22;4970582;28;20227;-82
2021/12/11 03:27:41;;;;;;;1.33;1.23;;;;;;;3.67;82.82;94558.06;4971384;28;20232;-82
2021/12/11 03:30:12;;;;;;;1.47;1.37;;;;;;;3.67;82.67;94549.63;4972122;28;20208;-82
2021/12/11 03:32:39;;;;;;;1.60;1.23;;;;;;;3.74;82.47;94548.06;4973019;28;20606;-82
2021/12/11 03:35:09;;;;;;;1.70;1.40;;;;;;;3.68;83.07;94563.97;4972669;28;20204;-82
2021/12/11 03:37:35;;;;;;;2.07;1.60;;;;;;;3.78;82.64;94562.06;4971283;28;20193;-82
2021/12/11 03:40:05;;;;;;;2.10;1.30;;;;;;;3.78;82.95;94572.25;4971764;28;20212;-82
2021/12/11 03:42:36;;;;;;;1.70;1.33;;;;;;;3.80;82.24;94568.59;4966623;28;20232;-82
2021/12/11 03:45:07;;;;;;;1.67;1.43;;;;;;;3.75;82.57;94577.66;4975149;28;20507;-82
2021/12/11 03:47:37;;;;;;;1.37;1.27;;;;;;;3.62;83.33;94582.44;4975225;28;20224;-82
2021/12/11 03:50:07;;;;;;;1.33;1.23;;;;;;;3.65;83.49;94588.00;4975926;28;20207;-82
2021/12/11 03:52:34;;;;;;;1.60;1.50;;;;;;;3.62;84.31;94590.88;4975418;28;20242;-82
2021/12/11 03:55:01;;;;;;;2.03;1.60;;;;;;;3.64;83.88;94598.34;4974489;28;20196;-82
2021/12/11 03:57:30;;;;;;;1.67;1.30;;;;;;;3.67;84.46;94593.72;4974093;28;20220;-82
2021/12/11 03:59:58;;;;;;;2.63;1.50;;;;;;;3.70;84.25;94595.94;4974669;28;20699;-82
2021/12/11 04:02:30;;;;;;;1.50;1.40;;;;;;;3.81;84.20;94600.72;4975399;28;20228;-82
2021/12/11 04:05:00;;;;;;;2.93;1.60;;;;;;;3.76;84.40;94604.69;4975537;28;20793;-82
2021/12/11 04:07:31;;;;;;;2.20;1.60;;;;;;;3.71;84.49;94605.16;4975164;28;20228;-82
2021/12/11 04:09:58;;;;;;;2.27;1.30;;;;;;;3.67;85.09;94610.72;4974646;28;20204;-82
2021/12/11 04:12:26;;;;;;;1.50;1.40;;;;;;;3.55;86.37;94612.00;4975399;28;20239;-82
2021/12/11 04:14:54;;;;;;;2.53;1.40;;;;;;;3.64;86.61;94614.41;4975069;28;20726;-82
2021/12/11 04:17:26;;;;;;;3.77;1.60;;;;;;;3.61;87.58;94622.34;4975920;28;20267;-82
2021/12/11 04:19:55;;;;;;;2.03;1.30;;;;;;;3.66;87.47;94617.56;4974799;28;20220;-82
2021/12/11 04:22:22;;;;;;;3.50;1.53;;;;;;;3.59;88.40;94621.72;4974373;28;20224;-82
2021/12/11 04:24:50;;;;;;;1.53;1.43;;;;;;;3.52;89.05;94630.91;4974247;28;20267;-82
2021/12/11 04:27:20;;;;;;;2.73;1.63;;;;;;;3.51;89.95;94636.16;4956378;28;20225;-82
2021/12/11 04:29:50;;;;;;;2.27;1.40;;;;;;;3.57;89.89;94638.88;4974686;28;20200;-82
2021/12/11 04:32:16;;;;;;;1.70;1.60;;;;;;;3.38;91.74;94644.25;4974685;28;20759;-81
2021/12/11 04:34:44;;;;;;;3.10;1.50;;;;;;;3.32;92.93;94645.66;4973962;28;20208;-82
2021/12/11 04:37:16;;;;;;;4.17;1.77;;;;;;;3.25;93.69;94649.78;4973759;28;20243;-82
2021/12/11 04:39:45;;;;;;;2.37;1.60;;;;;;;3.31;93.88;94654.25;4974172;28;20204;-82
2021/12/11 04:42:20;;;;;;;2.77;1.60;;;;;;;3.27;94.68;94658.03;4973579;28;20228;-82
2021/12/11 04:44:47;;;;;;;2.63;1.73;;;;;;;3.32;94.26;94660.91;4974007;28;20664;-82
2021/12/11 04:47:31;;;;;;;2.57;1.93;;;;;;;3.31;94.56;94661.88;4973622;28;20621;-82
2021/12/11 04:50:05;;;;;;;1.93;1.70;;;;;;;3.26;95.14;94670.94;4974134;28;20211;-82
2021/12/11 04:52:41;;;;;;;2.43;1.60;;;;;;;3.20;95.64;94663.91;4954058;28;20634;-82
2021/12/11 04:55:22;;;;;;;2.90;1.80;;;;;;;3.19;96.15;94672.50;4969347;28;20268;-82
2021/12/11 04:58:06;;;;;;;2.60;1.80;;;;;;;3.27;95.78;94667.44;4973771;28;20259;-82
2021/12/11 05:00:45;;;;;;;3.43;1.93;;;;;;;3.27;95.06;94680.94;4973932;28;20223;-82
2021/12/11 05:06:20;;;;;;;2.83;1.80;;;;;;;3.30;94.96;94687.47;4971772;28;20224;-82
2021/12/11 05:09:19;;;;;;;2.33;1.70;;;;;;;3.24;96.05;94680.47;4974739;28;20197;-82
2021/12/11 05:11:54;;;;;;;1.57;1.40;;;;;;;3.33;95.11;94695.59;4975588;28;20227;-84
2021/12/11 05:14:24;;;;;;;2.17;1.40;;;;;;;3.38;94.60;94703.56;4973600;28;20203;-82
2021/12/11 05:16:50;;;;;;;2.00;1.40;;;;;;;3.31;95.33;94699.22;4974683;28;20559;-82
2021/12/11 05:19:18;;;;;;;2.13;1.57;;;;;;;3.30;95.35;94706.06;4973937;28;20236;-82
2021/12/11 05:21:46;;;;;;;1.33;1.27;;;;;;;3.37;95.11;94712.13;4974007;28;20243;-82
2021/12/11 05:24:12;;;;;;;2.00;1.50;;;;;;;3.34;94.99;94706.56;4973373;28;20215;-82
2021/12/11 05:26:39;;;;;;;3.80;1.50;;;;;;;3.33;94.87;94713.41;4973963;28;20274;-82
2021/12/11 05:29:06;;;;;;;2.30;1.60;;;;;;;3.35;95.20;94726.75;4973031;28;20259;-82
2021/12/11 05:31:34;;;;;;;1.60;1.50;;;;;;;3.27;95.07;94731.03;4973902;28;20216;-82
2021/12/11 05:34:00;;;;;;;2.03;1.50;;;;;;;3.23;96.09;94734.81;4974001;28;20251;-82
2021/12/11 05:36:29;;;;;;;2.37;1.60;;;;;;;3.23;96.43;94740.72;4974323;28;20626;-82
2021/12/11 05:38:56;;;;;;;3.03;1.63;;;;;;;3.28;96.06;94743.56;4973974;28;20296;-82
2021/12/11 05:41:23;;;;;;;1.50;1.40;;;;;;;3.33;95.22;94746.47;4973703;28;20212;-82
2021/12/11 05:43:54;;;;;;;2.03;1.73;;;;;;;3.40;94.79;94744.91;4973550;28;20287;-82
2021/12/11 05:46:22;;;;;;;1.73;1.37;;;;;;;3.35;95.55;94748.84;4973264;28;20243;-82
2021/12/11 05:48:50;;;;;;;2.23;1.70;;;;;;;3.28;95.94;94751.19;4973997;28;20204;-82
2021/12/11 05:51:21;;;;;;;1.90;1.50;;;;;;;3.27;95.99;94741.22;4973403;28;20203;-82
2021/12/11 05:53:49;;;;;;;2.60;1.60;;;;;;;3.20;96.86;94750.38;4973179;28;20759;-82
2021/12/11 05:56:18;;;;;;;2.30;1.70;;;;;;;3.33;95.96;94750.75;4976062;28;20240;-82
2021/12/11 05:58:56;;;;;;;2.10;1.57;;;;;;;3.28;96.06;94756.28;4977798;28;20215;-82
2021/12/11 06:01:26;;;;;;;1.83;1.60;;;;;;;3.23;96.14;94760.25;4976591;28;20243;-82
2021/12/11 06:03:52;;;;;;;1.60;1.50;;;;;;;3.27;95.60;94754.69;4975249;28;20224;-82
2021/12/11 06:06:19;;;;;;;1.87;1.60;;;;;;;3.29;95.55;94759.63;4975293;28;20739;-82
2021/12/11 06:08:46;;;;;;;1.70;1.60;;;;;;;3.34;95.17;94765.06;4975335;28;20220;-82
2021/12/11 06:11:16;;;;;;;2.43;1.80;;;;;;;3.36;95.07;94758.09;4976173;28;20806;-82
2021/12/11 06:13:44;;;;;;;2.60;1.70;;;;;;;3.35;94.27;94771.75;4975419;28;20310;-82
2021/12/11 06:16:11;;;;;;;2.00;1.80;;;;;;;3.31;94.76;94773.00;4975730;28;20228;-82
2021/12/11 06:18:38;;;;;;;2.87;1.57;;;;;;;3.39;94.36;94778.94;4976992;28;20218;-82
2021/12/11 06:21:04;;;;;;;3.53;1.70;;;;;;;3.37;93.25;94780.03;4976497;28;20192;-82
2021/12/11 06:23:31;;;;;;;1.70;1.60;;;;;;;3.36;93.45;94783.53;4974127;28;20251;-82
2021/12/11 06:25:58;;;;;;;4.53;1.80;;;;;;;3.34;93.72;94803.22;4974487;28;20228;-82
2021/12/11 06:28:26;;;;;;;1.60;1.50;;;;;;;3.27;93.24;94797.94;4974643;28;20863;-82
2021/12/11 06:30:57;;;;;;;3.20;1.70;;;;;;;3.35;93.39;94800.53;4971810;28;20200;-82
2021/12/11 06:33:25;;;;;;;1.70;1.60;;;;;;;3.40;92.70;94802.63;4975541;28;20232;-82
2021/12/11 06:35:55;;;;;;;2.23;1.80;;;;;;;3.48;92.70;94816.16;4977109;28;20228;-82
2021/12/11 06:38:24;;;;;;;3.03;1.90;;;;;;;3.42;92.40;94821.09;4977365;28;20196;-82
2021/12/11 06:40:51;;;;;;;2.30;1.70;;;;;;;3.44;91.02;94831.91;4975541;28;20592;-82
2021/12/11 06:43:18;;;;;;;2.13;1.53;;;;;;;3.49;91.46;94832.22;4974077;28;20231;-82
2021/12/11 06:45:45;;;;;;;1.60;1.50;;;;;;;3.47;90.40;94831.59;4975061;28;20228;-82
2021/12/11 06:48:13;;;;;;;2.00;1.80;;;;;;;3.52;90.84;94846.41;4974616;28;20228;-82
2021/12/11 06:50:40;;;;;;;2.03;1.77;;;;;;;3.55;90.33;94856.28;4975759;28;20726;-81
2021/12/11 06:53:11;;;;;;;2.13;1.90;;;;;;;3.67;89.40;94855.06;4974418;28;20220;-82
2021/12/11 06:55:38;;;;;;;2.17;1.60;;;;;;;3.59;88.76;94855.03;4955654;28;20220;-82
2021/12/11 06:58:05;;;;;;;2.13;1.73;;;;;;;3.62;88.62;94859.84;4969021;28;20219;-82
2021/12/11 07:00:32;;;;;;;1.70;1.60;;;;;;;3.59;88.86;94870.31;4974818;28;20211;-82
2021/12/11 07:02:59;;;;;;;1.80;1.60;;;;;;;3.58;88.73;94871.25;4975138;28;20220;-82
2021/12/11 07:05:27;;;;;;;2.63;1.93;;;;;;;3.64;88.19;94874.00;4975481;28;20196;-82
2021/12/11 07:07:54;;;;;;;1.90;1.73;;;;;;;3.64;88.10;94879.09;4975435;28;20228;-82
2021/12/11 07:10:20;;;;;;;1.70;1.57;;;;;;;3.56;88.05;94875.69;4975281;28;20731;-82
2021/12/11 07:12:48;;;;;;;5.07;1.90;;;;;;;3.53;88.13;94891.25;4975023;28;20232;-82
2021/12/11 07:15:15;;;;;;;2.37;1.80;;;;;;;3.55;88.83;94895.25;4973821;28;20200;-82
2021/12/11 07:17:42;;;;;;;2.33;1.90;;;;;;;3.65;88.51;94905.34;4976596;28;20204;-82
2021/12/11 07:20:11;;;;;;;2.23;1.80;;;;;;;3.71;87.99;94902.97;4978590;28;20575;-82
2021/12/11 07:22:41;;;;;;;1.73;1.57;;;;;;;3.75;87.74;94917.00;4977275;28;20261;-82
2021/12/11 07:25:15;;;;;;;1.73;1.63;;;;;;;3.73;87.61;94918.09;4978387;28;20729;-82
2021/12/11 07:27:42;;;;;;;2.23;1.73;;;;;;;3.66;88.01;94930.63;4977078;28;20216;-82
2021/12/11 07:30:09;;;;;;;3.27;1.77;;;;;;;3.63;88.64;94938.59;4977626;28;20767;-82
2021/12/11 07:32:36;;;;;;;1.80;1.70;;;;;;;3.63;88.88;94945.41;4977459;28;20236;-82
2021/12/11 07:35:03;;;;;;;1.83;1.70;;;;;;;3.64;88.96;94957.19;4977935;28;20207;-82
2021/12/11 07:37:29;;;;;;;1.63;1.53;;;;;;;3.68;88.99;94951.63;4976947;28;20220;-82
2021/12/11 07:39:57;;;;;;;2.00;1.87;;;;;;;3.66;88.82;94960.38;4978011;28;20670;-82
2021/12/11 07:42:23;;;;;;;2.77;1.90;;;;;;;3.68;88.99;94966.91;4976537;28;20242;-82
2021/12/11 07:44:50;;;;;;;2.07;1.67;;;;;;;3.65;88.54;94972.31;4977201;28;20263;-82
2021/12/11 07:47:17;;;;;;;4.40;2.00;;;;;;;3.72;88.98;94983.50;4977352;28;20224;-83
2021/12/11 07:49:43;;;;;;;2.27;1.87;;;;;;;3.81;88.76;94997.88;4976967;28;20196;-82
2021/12/11 07:52:10;;;;;;;2.70;1.60;;;;;;;3.81;89.28;95007.28;4977734;28;20228;-82
2021/12/11 07:54:36;;;;;;;2.20;1.57;;;;;;;3.84;91.79;95009.53;4977366;28;20228;-82
2021/12/11 07:57:05;;;;;;;1.33;1.13;;;;;;;3.64;90.12;95021.63;4977607;28;20415;-82
2021/12/11 07:59:31;;;;;;;1.00;1.00;;;;;;;3.55;90.84;95030.13;4965977;28;20191;-82
2021/12/11 08:01:57;;;;;;;1.63;1.10;;;;;;;3.51;91.78;95040.75;4969193;28;20239;-82
2021/12/11 08:04:25;;;;;;;1.43;1.30;;;;;;;3.50;91.40;95034.84;4968602;28;20305;-82
2021/12/11 08:06:51;;;;;;;1.70;1.20;;;;;;;3.55;90.99;95036.97;4978242;28;20251;-82
2021/12/11 08:09:20;;;;;;;2.10;1.00;;;;;;;3.60;90.84;95042.44;4977703;28;20224;-82
2021/12/11 08:11:47;;;;;;;1.00;1.00;;;;;;;3.56;90.89;95046.22;4977559;28;20240;-82
2021/12/11 08:14:16;;;;;;;1.20;1.10;;;;;;;3.55;91.07;95050.50;4978233;28;20207;-83
2021/12/11 08:16:48;;;;;;;1.20;1.10;;;;;;;3.52;90.62;95060.16;4978059;28;20224;-82
2021/12/11 08:19:18;;;;;;;1.23;1.13;;;;;;;3.48;92.24;95065.53;4978750;28;20220;-81
2021/12/11 08:21:46;;;;;;;1.47;1.30;;;;;;;3.50;92.06;95075.56;4978181;28;20227;-82
2021/12/11 08:24:13;;;;;;;2.57;1.50;;;;;;;3.45;91.47;95073.50;4977888;28;20212;-83
2021/12/11 08:26:41;;;;;;;1.70;1.60;;;;;;;3.51;91.16;95084.81;4977980;28;20630;-83
2021/12/11 08:29:09;;;;;;;1.60;1.50;;;;;;;3.53;91.21;95087.22;4978097;28;20224;-82
2021/12/11 08:31:39;;;;;;;2.07;1.40;;;;;;;3.48;91.36;95087.63;4978597;28;20336;-82
2021/12/11 08:34:06;;;;;;;1.57;1.47;;;;;;;3.56;90.44;95092.03;4978594;28;20216;-82
2021/12/11 08:36:33;;;;;;;1.70;1.60;;;;;;;3.61;90.38;95094.94;4978030;28;20228;-82
2021/12/11 08:39:00;;;;;;;1.90;1.70;;;;;;;3.62;90.17;95104.16;4973255;28;20405;-82
2021/12/11 08:41:30;;;;;;;4.10;1.60;;;;;;;3.62;89.60;95111.81;4978665;28;20208;-81
2021/12/11 08:44:03;;;;;;;2.10;1.90;;;;;;;3.53;90.28;95116.00;4991115;28;20215;-82
2021/12/11 08:46:33;;;;;;;1.80;1.70;;;;;;;3.36;90.58;95119.34;4984792;28;20283;-82
2021/12/11 08:49:06;;;;;;;2.00;1.90;;;;;;;3.39;91.63;95129.25;4981977;28;20231;-82
2021/12/11 08:51:37;;;;;;;1.87;1.77;;;;;;;3.53;90.86;95133.03;4979306;28;20204;-82
2021/12/11 08:54:04;;;;;;;2.10;1.90;;;;;;;3.56;89.82;95141.19;4978967;28;20215;-82
2021/12/11 08:56:30;;;;;;;2.10;1.83;;;;;;;3.62;89.87;95150.00;4978712;28;20227;-82
2021/12/11 08:58:58;;;;;;;1.97;1.87;;;;;;;3.58;89.83;95148.66;4978397;28;20200;-82
2021/12/11 09:01:32;;;;;;;2.03;1.93;;;;;;;3.64;89.66;95151.44;4977158;28;20284;-82
2021/12/11 09:04:03;;;;;;;1.83;1.73;;;;;;;3.70;88.65;95155.13;4978930;28;20200;-82
2021/12/11 09:06:34;;;;;;;2.13;2.00;;;;;;;3.75;88.31;95173.34;4976662;28;20212;-81
2021/12/11 09:09:05;;;;;;;2.27;2.07;;;;;;;3.73;88.27;95168.38;4977889;28;20223;-83
2021/12/11 09:11:39;;;;;;;5.23;2.70;;;;;;;3.95;100.00;95177.34;4976744;28;20208;-82
2021/12/11 09:14:12;;;;;;;3.10;1.90;;;;;;;4.29;91.82;95180.00;4976450;28;20196;-84
2021/12/11 09:16:43;;;;;;;7.73;2.90;;;;;;;4.20;87.11;95180.09;4977397;28;20224;-83
2021/12/11 09:19:15;;;;;;;2.40;2.20;;;;;;;4.06;86.44;95191.59;4977494;28;20203;-83
2021/12/11 09:21:45;;;;;;;2.53;2.33;;;;;;;4.02;87.45;95203.03;4976947;28;20200;-83
2021/12/11 09:24:23;;;;;;;2.23;2.13;;;;;;;3.86;87.64;95206.22;4979486;28;20603;-83
2021/12/11 09:26:53;;;;;;;2.57;2.37;;;;;;;3.88;87.98;95208.63;4990424;28;20219;-83
2021/12/11 09:29:24;;;;;;;2.73;2.53;;;;;;;3.89;87.61;95215.31;4960787;28;20553;-82
2021/12/11 09:32:02;;;;;;;2.90;2.70;;;;;;;3.91;87.97;95215.97;4967321;28;20235;-82
2021/12/11 09:34:35;;;;;;;4.03;2.70;;;;;;;3.92;87.84;95218.38;4977763;28;20573;-83
2021/12/11 09:37:03;;;;;;;2.67;2.47;;;;;;;3.90;87.08;95235.53;4977912;28;20774;-81
2021/12/11 09:39:33;;;;;;;7.37;3.17;;;;;;;4.05;100.00;95238.38;4976186;28;20208;-82
2021/12/11 09:41:59;;;;;;;3.70;2.97;;;;;;;4.34;94.51;95235.63;4977416;28;20695;-83
2021/12/11 09:44:29;;;;;;;4.53;4.13;;;;;;;4.22;87.00;95235.06;4978367;28;20267;-81
2021/12/11 09:47:00;;;;;;;13.27;10.40;;;;;;;4.16;86.79;95246.63;4978881;28;20259;-81
2021/12/11 09:49:36;;;;;;;3.03;2.83;;;;;;;4.01;86.14;95245.53;4977359;28;20260;-82
2021/12/11 09:52:23;;;;;;;3.00;2.80;;;;;;;3.98;86.99;95243.28;4976594;28;20261;-82
2021/12/11 09:55:01;;;;;;;2.80;2.60;;;;;;;3.83;88.23;95243.91;4976109;28;20642;-82
2021/12/11 09:57:36;;;;;;;5.40;2.80;;;;;;;3.86;87.89;95246.16;4977043;28;20239;-83
2021/12/11 10:00:14;;;;;;;3.57;3.00;;;;;;;3.81;87.98;95249.94;4976084;28;20196;-83
2021/12/11 10:02:44;;;;;;;3.10;2.80;;;;;;;3.93;87.92;95247.19;4976396;28;20283;-83
2021/12/11 10:05:29;;;;;;;3.47;3.17;;;;;;;3.87;87.21;95248.56;4977040;28;20197;-83
2021/12/11 10:08:26;;;;;;;3.37;2.97;;;;;;;3.88;87.79;95251.91;4977176;28;20266;-81
2021/12/11 10:11:06;;;;;;;3.20;2.90;;;;;;;3.85;88.71;95255.53;4977320;28;20234;-81
2021/12/11 10:13:38;;;;;;;3.30;3.00;;;;;;;3.88;88.12;95255.25;4976010;28;20291;-81
2021/12/11 10:16:06;;;;;;;3.40;3.10;;;;;;;3.78;88.50;95251.97;4975769;28;20223;-81
2021/12/11 10:18:39;;;;;;;3.13;2.90;;;;;;;3.84;87.97;95266.69;4975564;28;20200;-81
2021/12/11 10:21:12;;;;;;;2.90;2.70;;;;;;;3.78;87.20;95270.59;4975248;28;20200;-81
2021/12/11 10:23:45;;;;;;;3.40;3.10;;;;;;;3.92;87.54;95276.94;4979975;28;20291;-82
2021/12/11 10:26:25;;;;;;;3.27;2.97;;;;;;;3.88;86.70;95282.47;4975813;28;20394;-81
2021/12/11 10:28:57;;;;;;;3.20;2.93;;;;;;;3.89;86.62;95284.88;4976967;28;20216;-81
2021/12/11 10:31:35;;;;;;;2.97;2.77;;;;;;;3.95;86.96;95286.03;4975534;28;20199;-83
2021/12/11 10:34:10;;;;;;;3.13;2.87;;;;;;;4.00;88.00;95299.16;4975985;28;20227;-83
2021/12/11 10:37:00;;;;;;;3.40;3.10;;;;;;;4.14;85.94;95298.66;4975989;28;20255;-83
2021/12/11 10:39:31;;;;;;;3.50;3.20;;;;;;;4.07;87.34;95305.28;4976629;28;20200;-83
2021/12/11 10:42:00;;;;;;;3.20;2.90;;;;;;;4.02;85.68;95310.81;4975827;28;20349;-82
2021/12/11 10:44:44;;;;;;;3.47;3.17;;;;;;;4.10;85.88;95326.16;4973970;28;20714;-83
2021/12/11 10:47:17;;;;;;;3.33;3.00;;;;;;;4.07;85.91;95323.09;4984396;28;20216;-83
2021/12/11 10:49:45;;;;;;;3.13;2.93;;;;;;;4.07;85.43;95316.25;4994881;28;20246;-83
2021/12/11 10:52:19;;;;;;;3.30;3.00;;;;;;;4.11;85.73;95325.22;4986942;28;20318;-82
2021/12/11 10:54:51;;;;;;;3.17;2.87;;;;;;;4.06;84.76;95324.03;4979062;28;20208;-82
2021/12/11 10:57:19;;;;;;;2.90;2.70;;;;;;;4.02;84.53;95327.84;4979534;28;20344;-82
2021/12/11 10:59:54;;;;;;;2.90;2.70;;;;;;;3.97;85.53;95337.66;4979099;28;20200;-83
2021/12/11 11:02:27;;;;;;;2.87;2.67;;;;;;;3.97;85.26;95338.44;4978301;28;20254;-83
2021/12/11 11:04:58;;;;;;;2.90;2.70;;;;;;;4.02;84.84;95348.22;4968572;28;20403;-83
2021/12/11 11:07:34;;;;;;;3.33;3.00;;;;;;;3.99;85.95;95346.75;4958785;29;20259;-83
2021/12/11 11:10:08;;;;;;;2.87;2.67;;;;;;;4.03;86.19;95355.72;4967851;28;20215;-82
2021/12/11 11:12:34;;;;;;;3.03;2.73;;;;;;;4.04;86.52;95364.16;4977612;28;20236;-83
2021/12/11 11:15:04;;;;;;;2.97;2.77;;;;;;;4.11;85.53;95358.34;4978225;28;20267;-82
2021/12/11 11:17:34;;;;;;;3.10;2.90;;;;;;;4.14;85.33;95375.09;4978071;28;20247;-82
2021/12/11 11:20:06;;;;;;;3.17;2.90;;;;;;;4.04;84.51;95374.34;4979516;28;20227;-82
2021/12/11 11:22:44;;;;;;;2.87;2.67;;;;;;;4.01;84.36;95384.81;4973287;28;20224;-83
2021/12/11 11:25:13;;;;;;;3.20;3.00;;;;;;;3.98;84.96;95383.34;4972233;29;20222;-82
2021/12/11 11:27:42;;;;;;;3.50;3.20;;;;;;;3.99;85.45;95390.06;4971992;28;20221;-82
2021/12/11 11:30:14;;;;;;;3.70;3.40;;;;;;;4.03;86.04;95395.69;4962336;28;20228;-81
2021/12/11 11:32:44;;;;;;;3.33;3.03;;;;;;;3.99;86.16;95401.97;4976549;28;20232;-83
2021/12/11 11:35:16;;;;;;;3.60;2.83;;;;;;;3.97;84.59;95399.56;4980960;28;20663;-83
2021/12/11 11:37:43;;;;;;;2.90;2.70;;;;;;;4.08;85.23;95404.47;4981154;28;20295;-83
2021/12/11 11:40:17;;;;;;;3.83;3.40;;;;;;;4.11;84.72;95404.19;4980648;28;20872;-83
2021/12/11 11:42:46;;;;;;;2.90;2.70;;;;;;;4.20;85.14;95404.31;4980041;28;20258;-83
2021/12/11 11:45:16;;;;;;;3.17;2.97;;;;;;;4.18;83.62;95412.09;4985983;28;20604;-83
2021/12/11 11:47:54;;;;;;;3.60;2.77;;;;;;;4.22;84.01;95412.63;4981173;28;20219;-83
2021/12/11 11:50:22;;;;;;;3.07;2.87;;;;;;;4.22;83.24;95431.25;4980717;28;20598;-82
2021/12/11 11:52:49;;;;;;;5.80;3.10;;;;;;;4.20;83.67;95424.69;4982112;28;20231;-82
2021/12/11 11:55:20;;;;;;;3.43;3.13;;;;;;;4.10;83.62;95429.81;4993199;28;20290;-82
2021/12/11 11:57:53;;;;;;;3.40;3.10;;;;;;;4.05;83.59;95431.97;4982818;28;20228;-83
2021/12/11 12:00:23;;;;;;;3.50;3.20;;;;;;;4.08;83.59;95434.25;4980616;28;20267;-84